createdAt,value
2023-05-08T00:00:58.598Z,100025.57
2023-05-08T00:03:27.235Z,100025.36
2023-05-08T00:05:56.390Z,100020.44
2023-05-08T00:08:23.941Z,100018.19
2023-05-08T00:10:51.510Z,100018.30
2023-05-08T00:13:18.886Z,100020.27
2023-05-08T00:15:46.722Z,100022.61
2023-05-08T00:18:13.972Z,100023.42
2023-05-08T00:20:42.247Z,100024.11
2023-05-08T00:23:09.510Z,100024.69
2023-05-08T00:25:37.006Z,100022.90
2023-05-08T00:28:04.288Z,100027.24
2023-05-08T00:30:31.569Z,100029.52
2023-05-08T00:32:59.052Z,100031.86
2023-05-08T00:35:26.801Z,100032.30
2023-05-08T00:37:54.372Z,100032.83
2023-05-08T00:40:21.587Z,100031.19
2023-05-08T00:42:48.948Z,100035.85
2023-05-08T00:45:16.320Z,100028.27
2023-05-08T00:47:43.887Z,100028.16
2023-05-08T00:50:11.952Z,100028.92
2023-05-08T00:52:39.902Z,100027.09
2023-05-08T00:55:07.765Z,100026.70
2023-05-08T00:57:35.945Z,100026.36
2023-05-08T01:00:04.013Z,100025.34
2023-05-08T01:02:31.832Z,100025.21
2023-05-08T01:04:59.550Z,100023.54
2023-05-08T01:07:27.939Z,100024.23
2023-05-08T01:09:55.742Z,100020.46
2023-05-08T01:12:42.598Z,100022.98
2023-05-08T01:15:12.517Z,100019.11
2023-05-08T01:17:57.968Z,100020.11
2023-05-08T01:20:37.534Z,100018.11
2023-05-08T01:23:07.386Z,100011.48
2023-05-08T01:25:34.288Z,100010.68
2023-05-08T01:28:08.654Z,100008.75
2023-05-08T01:30:43.433Z,100003.02
2023-05-08T01:33:15.991Z,100001.55
2023-05-08T01:35:48.385Z,100002.68
2023-05-08T01:38:23.198Z,100000.83
2023-05-08T01:40:54.402Z,100000.02
2023-05-08T01:43:26.323Z,100000.98
2023-05-08T01:45:54.401Z,100005.10
2023-05-08T01:48:26.661Z,100000.35
2023-05-08T01:50:55.852Z,100004.21
2023-05-08T01:53:27.800Z,100003.80
2023-05-08T01:55:56.416Z,100001.77
2023-05-08T01:58:24.854Z,100000.78
2023-05-08T02:00:52.275Z,100000.09
2023-05-08T02:03:19.845Z,99999.32
2023-05-08T02:05:47.351Z,100001.04
2023-05-08T02:08:15.326Z,99999.98
2023-05-08T02:10:42.857Z,99999.80
2023-05-08T02:13:10.893Z,100005.95
2023-05-08T02:15:38.627Z,100007.02
2023-05-08T02:18:07.857Z,100001.74
2023-05-08T02:20:35.981Z,99993.05
2023-05-08T02:23:03.378Z,99992.50
2023-05-08T02:25:30.692Z,99991.65
2023-05-08T02:27:58.047Z,99992.56
2023-05-08T02:30:26.332Z,99992.34
2023-05-08T02:32:53.951Z,99995.66
2023-05-08T02:35:21.852Z,99998.80
2023-05-08T02:37:52.898Z,99998.48
2023-05-08T02:40:20.977Z,99998.59
2023-05-08T02:42:48.672Z,99993.80
2023-05-08T02:45:17.012Z,99992.09
2023-05-08T02:47:51.344Z,99988.23
2023-05-08T02:50:28.338Z,99989.02
2023-05-08T02:52:59.748Z,99987.52
2023-05-08T02:55:40.408Z,99987.79
2023-05-08T02:58:18.314Z,99987.92
2023-05-08T03:00:47.831Z,99992.02
2023-05-08T03:03:18.415Z,99982.94
2023-05-08T03:05:51.430Z,99984.16
2023-05-08T03:08:20.015Z,99986.95
2023-05-08T03:10:47.570Z,99981.11
2023-05-08T03:13:14.738Z,99984.25
2023-05-08T03:15:50.202Z,99985.39
2023-05-08T03:18:18.337Z,99987.02
2023-05-08T03:20:46.923Z,99994.20
2023-05-08T03:23:14.376Z,99996.64
2023-05-08T03:25:42.244Z,99997.84
2023-05-08T03:28:10.719Z,99994.94
2023-05-08T03:30:38.794Z,100000.55
2023-05-08T03:33:09.057Z,100004.52
2023-05-08T03:35:37.929Z,99999.69
2023-05-08T03:38:07.001Z,100002.61
2023-05-08T03:40:39.042Z,100001.96
2023-05-08T03:43:09.617Z,100003.23
2023-05-08T03:45:37.756Z,100001.17
2023-05-08T03:48:06.002Z,100010.46
2023-05-08T03:50:37.803Z,100008.73
2023-05-08T03:53:07.816Z,100009.90
2023-05-08T03:55:35.479Z,100011.19
2023-05-08T03:58:14.307Z,100008.94
2023-05-08T04:00:45.082Z,100006.73
2023-05-08T04:03:36.229Z,100007.71
2023-05-08T04:06:10.170Z,100006.36
2023-05-08T04:08:43.784Z,100009.78
2023-05-08T04:11:29.345Z,100014.45
2023-05-08T04:14:01.756Z,100018.18
2023-05-08T04:16:30.137Z,100021.25
2023-05-08T04:19:04.313Z,100028.60
2023-05-08T04:21:32.933Z,100028.02
2023-05-08T04:24:00.562Z,100030.54
2023-05-08T04:26:28.447Z,100026.89
2023-05-08T04:28:56.326Z,100031.98
2023-05-08T04:31:23.707Z,100034.27
2023-05-08T04:33:51.191Z,100029.63
2023-05-08T04:36:18.774Z,100029.50
2023-05-08T04:38:46.376Z,100028.09
2023-05-08T04:41:15.348Z,100031.49
2023-05-08T04:43:44.733Z,100030.02
2023-05-08T04:46:12.659Z,100035.55
2023-05-08T04:48:40.048Z,100034.17
2023-05-08T04:51:07.603Z,100038.66
2023-05-08T04:53:35.404Z,100043.11
2023-05-08T04:56:02.721Z,100045.35
2023-05-08T04:58:30.070Z,100045.61
2023-05-08T05:00:57.957Z,100049.55
2023-05-08T05:03:25.655Z,100048.81
2023-05-08T05:05:57.551Z,100051.80
2023-05-08T05:08:25.243Z,100046.83
2023-05-08T05:10:52.682Z,100046.29
2023-05-08T05:13:20.347Z,100051.30
2023-05-08T05:15:48.336Z,100055.13
2023-05-08T05:18:15.977Z,100062.02
2023-05-08T05:20:43.657Z,100058.80
2023-05-08T05:23:11.942Z,100054.80
2023-05-08T05:25:39.897Z,100059.16
2023-05-08T05:28:07.564Z,100063.44
2023-05-08T05:30:35.098Z,100059.71
2023-05-08T05:33:03.013Z,100065.11
2023-05-08T05:35:31.542Z,100064.38
2023-05-08T05:37:59.319Z,100061.36
2023-05-08T05:40:26.869Z,100059.15
2023-05-08T05:42:54.316Z,100053.38
2023-05-08T05:45:22.099Z,100055.56
2023-05-08T05:47:50.604Z,100055.59
2023-05-08T05:50:19.864Z,100054.36
2023-05-08T05:52:48.141Z,100049.41
2023-05-08T05:55:16.521Z,100050.76
2023-05-08T05:57:44.483Z,100051.84
2023-05-08T06:00:14.366Z,100048.31
2023-05-08T06:02:42.363Z,100052.11
2023-05-08T06:05:11.878Z,100051.94
2023-05-08T06:07:40.074Z,100051.44
2023-05-08T06:10:08.265Z,100054.23
2023-05-08T06:12:36.090Z,100058.95
2023-05-08T06:15:05.383Z,100057.96
2023-05-08T06:17:33.118Z,100059.41
2023-05-08T06:20:00.815Z,100058.97
2023-05-08T06:22:30.422Z,100062.53
2023-05-08T06:24:58.181Z,100065.18
2023-05-08T06:27:26.378Z,100065.70
2023-05-08T06:29:53.922Z,100068.66
2023-05-08T06:32:21.535Z,100064.12
2023-05-08T06:34:49.030Z,100064.66
2023-05-08T06:37:16.591Z,100067.73
2023-05-08T06:39:43.940Z,100068.82
2023-05-08T06:42:11.514Z,100070.71
2023-05-08T06:44:41.032Z,100076.77
2023-05-08T06:47:08.801Z,100072.75
2023-05-08T06:49:36.868Z,100072.45
2023-05-08T06:52:04.715Z,100073.70
2023-05-08T06:54:32.379Z,100074.59
2023-05-08T06:56:59.833Z,100075.50
2023-05-08T06:59:27.292Z,100073.88
2023-05-08T07:01:54.916Z,100074.00
2023-05-08T07:04:23.078Z,100073.59
2023-05-08T07:06:50.581Z,100073.50
2023-05-08T07:09:21.009Z,100074.02
2023-05-08T07:11:48.674Z,100069.13
2023-05-08T07:14:16.026Z,100065.15
2023-05-08T07:16:43.557Z,100065.63
2023-05-08T07:19:11.247Z,100070.77
2023-05-08T07:21:39.028Z,100067.16
2023-05-08T07:24:06.874Z,100069.17
2023-05-08T07:26:34.228Z,100066.84
2023-05-08T07:29:01.902Z,100066.94
2023-05-08T07:31:29.379Z,100067.39
2023-05-08T07:33:57.209Z,100063.59
2023-05-08T07:36:24.655Z,100069.89
2023-05-08T07:38:52.436Z,100071.20
2023-05-08T07:41:20.453Z,100060.98
2023-05-08T07:43:48.167Z,100061.77
2023-05-08T07:46:19.000Z,100062.98
2023-05-08T07:48:46.753Z,100059.10
2023-05-08T07:51:14.582Z,100056.53
2023-05-08T07:53:41.881Z,100062.42
2023-05-08T07:56:09.443Z,100057.69
2023-05-08T07:58:36.993Z,100056.24
2023-05-08T08:01:06.100Z,100058.92
2023-05-08T08:03:34.266Z,100053.05
2023-05-08T08:06:02.044Z,100046.98
2023-05-08T08:08:29.496Z,100045.45
2023-05-08T08:10:57.282Z,100046.90
2023-05-08T08:13:24.845Z,100052.69
2023-05-08T08:15:52.366Z,100052.52
2023-05-08T08:18:19.974Z,100059.10
2023-05-08T08:20:47.696Z,100054.79
2023-05-08T08:23:15.261Z,100053.86
2023-05-08T08:25:42.916Z,100054.98
2023-05-08T08:28:10.580Z,100052.52
2023-05-08T08:30:38.138Z,100047.32
2023-05-08T08:33:06.614Z,100049.20
2023-05-08T08:35:34.280Z,100050.75
2023-05-08T08:38:01.934Z,100043.95
2023-05-08T08:40:29.413Z,100040.68
2023-05-08T08:42:57.054Z,100035.30
2023-05-08T08:45:24.715Z,100032.20
2023-05-08T08:47:52.468Z,100029.30
2023-05-08T08:50:19.941Z,100027.05
2023-05-08T08:52:54.580Z,100020.84
2023-05-08T08:55:23.577Z,100026.13
2023-05-08T08:57:59.791Z,100022.81
2023-05-08T09:00:27.475Z,100023.61
2023-05-08T09:02:54.772Z,100026.89
2023-05-08T09:05:22.810Z,100019.35
2023-05-08T09:07:50.254Z,100019.67
2023-05-08T09:10:17.508Z,100027.31
2023-05-08T09:12:45.527Z,100026.25
2023-05-08T09:15:13.376Z,100025.67
2023-05-08T09:17:41.061Z,100028.85
2023-05-08T09:20:09.205Z,100022.51
2023-05-08T09:22:37.258Z,100024.63
2023-05-08T09:25:04.809Z,100021.09
2023-05-08T09:27:32.669Z,100018.45
2023-05-08T09:30:05.965Z,100018.27
2023-05-08T09:32:33.386Z,100014.23
2023-05-08T09:35:00.276Z,100007.92
2023-05-08T09:37:28.127Z,100014.56
2023-05-08T09:39:55.501Z,100008.02
2023-05-08T09:42:25.603Z,99993.02
2023-05-08T09:44:53.608Z,99998.71
2023-05-08T09:47:22.392Z,100002.84
2023-05-08T09:50:06.449Z,100002.60
2023-05-08T09:52:34.576Z,100001.36
2023-05-08T09:55:02.767Z,99996.84
2023-05-08T09:57:30.922Z,99994.04
2023-05-08T10:00:02.395Z,99994.31
2023-05-08T10:02:30.388Z,99995.92
2023-05-08T10:04:58.029Z,99995.15
2023-05-08T10:07:32.228Z,99992.89
2023-05-08T10:10:02.143Z,99994.67
2023-05-08T10:12:29.697Z,100003.13
2023-05-08T10:14:56.711Z,99994.93
2023-05-08T10:17:28.513Z,99993.48
2023-05-08T10:19:58.327Z,99996.90
2023-05-08T10:22:26.074Z,99996.05
2023-05-08T10:24:55.066Z,99991.79
2023-05-08T10:27:46.184Z,99991.44
2023-05-08T10:30:14.868Z,99987.73
2023-05-08T10:32:45.959Z,99987.82
2023-05-08T10:35:13.465Z,99987.13
2023-05-08T10:37:42.632Z,99982.45
2023-05-08T10:40:10.981Z,99982.15
2023-05-08T10:42:38.617Z,99984.74
2023-05-08T10:45:06.827Z,99987.38
2023-05-08T10:47:36.901Z,99981.84
2023-05-08T10:50:15.490Z,99979.06
2023-05-08T10:52:44.303Z,99986.24
2023-05-08T10:55:17.842Z,99990.60
2023-05-08T10:58:07.478Z,99994.48
2023-05-08T11:00:53.481Z,99995.64
2023-05-08T11:03:31.250Z,99994.05
2023-05-08T11:05:59.752Z,99985.41
2023-05-08T11:08:27.956Z,99986.33
2023-05-08T11:11:05.382Z,99976.90
2023-05-08T11:13:34.090Z,99973.46
2023-05-08T11:16:01.674Z,99988.91
2023-05-08T11:18:41.825Z,99988.55
2023-05-08T11:21:17.043Z,99991.66
2023-05-08T11:23:44.396Z,99994.77
2023-05-08T11:26:15.145Z,99993.46
2023-05-08T11:28:54.994Z,99990.27
2023-05-08T11:31:22.589Z,99990.70
2023-05-08T11:33:50.512Z,99984.37
2023-05-08T11:36:20.835Z,99977.42
2023-05-08T11:39:15.942Z,99973.07
2023-05-08T11:41:43.394Z,99960.13
2023-05-08T11:44:16.798Z,99957.77
2023-05-08T11:46:49.201Z,99958.48
2023-05-08T11:49:18.115Z,99959.35
2023-05-08T11:51:48.171Z,99965.89
2023-05-08T11:54:16.954Z,99962.23
2023-05-08T11:56:47.642Z,99959.90
2023-05-08T11:59:15.452Z,99952.42
2023-05-08T12:01:46.280Z,99954.38
2023-05-08T12:04:16.361Z,99951.58
2023-05-08T12:06:45.093Z,99940.82
2023-05-08T12:09:13.368Z,99935.76
2023-05-08T12:11:43.808Z,99939.53
2023-05-08T12:14:15.363Z,99936.86
2023-05-08T12:16:42.879Z,99937.42
2023-05-08T12:19:13.567Z,99940.43
2023-05-08T12:21:49.097Z,99948.09
2023-05-08T12:24:17.363Z,99953.73
2023-05-08T12:26:45.637Z,99956.92
2023-05-08T12:29:13.193Z,99961.66
2023-05-08T12:31:41.555Z,99962.27
2023-05-08T12:34:10.471Z,99968.36
2023-05-08T12:36:38.392Z,99970.96
2023-05-08T12:39:16.233Z,99973.33
2023-05-08T12:41:48.096Z,99974.02
2023-05-08T12:44:17.292Z,99974.12
2023-05-08T12:46:55.903Z,99973.61
2023-05-08T12:49:30.542Z,99973.58
2023-05-08T12:52:08.128Z,99971.55
2023-05-08T12:54:36.627Z,99972.16
2023-05-08T12:57:07.544Z,99969.23
2023-05-08T12:59:35.124Z,99974.55
2023-05-08T13:02:02.821Z,99977.52
2023-05-08T13:04:30.522Z,99975.13
2023-05-08T13:06:58.395Z,99973.17
2023-05-08T13:09:25.854Z,99982.87
2023-05-08T13:11:53.227Z,99983.84
2023-05-08T13:14:20.802Z,99983.65
2023-05-08T13:16:48.532Z,99983.41
2023-05-08T13:19:16.497Z,99985.17
2023-05-08T13:21:48.149Z,99987.23
2023-05-08T13:24:15.818Z,99991.38
2023-05-08T13:26:43.576Z,99990.31
2023-05-08T13:29:10.954Z,99995.89
2023-05-08T13:31:38.441Z,99998.63
2023-05-08T13:34:05.958Z,99998.52
2023-05-08T13:36:33.608Z,100006.70
2023-05-08T13:39:01.273Z,100010.01
2023-05-08T13:41:28.728Z,100009.52
2023-05-08T13:43:56.291Z,100008.14
2023-05-08T13:46:24.295Z,100009.23
2023-05-08T13:48:52.222Z,100011.52
2023-05-08T13:51:19.685Z,100004.06
2023-05-08T13:53:47.284Z,100006.90
2023-05-08T13:56:15.322Z,100005.81
2023-05-08T13:58:43.382Z,100007.70
2023-05-08T14:01:24.930Z,100006.99
2023-05-08T14:03:54.701Z,100004.34
2023-05-08T14:06:22.124Z,99999.05
2023-05-08T14:08:52.140Z,99995.20
2023-05-08T14:11:22.888Z,99982.48
2023-05-08T14:13:50.344Z,99973.02
2023-05-08T14:16:17.957Z,99971.06
2023-05-08T14:18:47.099Z,99979.80
2023-05-08T14:21:14.458Z,99980.30
2023-05-08T14:23:44.106Z,99982.73
2023-05-08T14:26:11.499Z,99988.85
2023-05-08T14:28:39.487Z,99993.54
2023-05-08T14:31:07.133Z,99997.77
2023-05-08T14:33:35.838Z,99999.66
2023-05-08T14:36:03.376Z,99995.62
2023-05-08T14:38:31.052Z,99992.40
2023-05-08T14:40:58.843Z,99996.11
2023-05-08T14:43:26.888Z,99991.98
2023-05-08T14:45:54.461Z,99989.86
2023-05-08T14:48:22.009Z,99992.12
2023-05-08T14:50:49.632Z,99994.02
2023-05-08T14:53:18.443Z,99989.86
2023-05-08T14:55:46.305Z,99990.89
2023-05-08T14:58:13.980Z,99993.84
2023-05-08T15:00:43.106Z,99993.62
2023-05-08T15:03:10.687Z,99993.73
2023-05-08T15:05:39.026Z,99995.47
2023-05-08T15:08:06.477Z,100002.17
2023-05-08T15:10:33.931Z,100001.81
2023-05-08T15:13:01.307Z,100006.04
2023-05-08T15:15:28.843Z,100007.02
2023-05-08T15:17:59.378Z,100002.05
2023-05-08T15:20:27.138Z,99998.96
2023-05-08T15:22:55.323Z,99993.25
2023-05-08T15:25:23.715Z,99993.55
2023-05-08T15:27:53.101Z,99998.30
2023-05-08T15:30:21.176Z,99998.14
2023-05-08T15:32:49.885Z,100003.20
2023-05-08T15:35:17.913Z,100005.97
2023-05-08T15:37:46.203Z,100007.70
2023-05-08T15:40:13.957Z,100008.13
2023-05-08T15:42:41.334Z,100012.73
2023-05-08T15:45:09.469Z,100014.09
2023-05-08T15:47:37.422Z,100014.05
2023-05-08T15:50:07.461Z,100016.10
2023-05-08T15:52:34.954Z,100011.14
2023-05-08T15:55:02.398Z,100016.90
2023-05-08T15:57:31.069Z,100020.63
2023-05-08T15:59:58.630Z,100023.85
2023-05-08T16:02:26.251Z,100027.02
2023-05-08T16:04:54.049Z,100022.58
2023-05-08T16:07:21.415Z,100029.08
2023-05-08T16:09:50.191Z,100029.45
2023-05-08T16:12:19.817Z,100037.08
2023-05-08T16:14:47.670Z,100042.78
2023-05-08T16:17:16.302Z,100042.42
2023-05-08T16:19:43.568Z,100047.95
2023-05-08T16:22:11.479Z,100052.27
2023-05-08T16:24:40.882Z,100054.13
2023-05-08T16:27:08.860Z,100054.50
2023-05-08T16:29:38.263Z,100060.22
2023-05-08T16:32:06.236Z,100063.59
2023-05-08T16:34:35.623Z,100065.42
2023-05-08T16:37:03.479Z,100061.56
2023-05-08T16:39:30.938Z,100064.57
2023-05-08T16:41:58.719Z,100070.08
2023-05-08T16:44:26.478Z,100069.29
2023-05-08T16:46:54.688Z,100075.57
2023-05-08T16:49:22.517Z,100076.27
2023-05-08T16:51:50.065Z,100081.53
2023-05-08T16:54:18.342Z,100085.73
2023-05-08T16:56:46.122Z,100088.95
2023-05-08T16:59:13.662Z,100090.50
2023-05-08T17:01:41.103Z,100096.98
2023-05-08T17:04:08.781Z,100098.56
2023-05-08T17:06:36.236Z,100101.08
2023-05-08T17:09:03.802Z,100103.54
2023-05-08T17:11:31.253Z,100106.77
2023-05-08T17:13:58.707Z,100115.91
2023-05-08T17:16:26.703Z,100116.23
2023-05-08T17:18:54.444Z,100117.69
2023-05-08T17:21:21.996Z,100122.48
2023-05-08T17:23:50.321Z,100129.91
2023-05-08T17:26:17.732Z,100131.10
2023-05-08T17:28:48.343Z,100135.94
2023-05-08T17:31:16.513Z,100140.48
2023-05-08T17:33:43.963Z,100142.46
2023-05-08T17:36:14.327Z,100146.65
2023-05-08T17:38:46.021Z,100148.54
2023-05-08T17:41:13.608Z,100151.79
2023-05-08T17:43:41.106Z,100158.69
2023-05-08T17:46:08.706Z,100158.86
2023-05-08T17:48:36.415Z,100166.35
2023-05-08T17:51:04.081Z,100170.52
2023-05-08T17:53:31.714Z,100172.03
2023-05-08T17:55:59.501Z,100178.16
2023-05-08T17:58:27.273Z,100179.59
2023-05-08T18:00:55.684Z,100185.85
2023-05-08T18:03:23.519Z,100187.55
2023-05-08T18:05:51.336Z,100190.43
2023-05-08T18:08:19.058Z,100195.13
2023-05-08T18:10:47.004Z,100194.66
2023-05-08T18:13:14.427Z,100197.96
2023-05-08T18:15:42.755Z,100196.11
2023-05-08T18:18:10.604Z,100199.92
2023-05-08T18:20:38.169Z,100201.23
2023-05-08T18:23:05.722Z,100204.39
2023-05-08T18:25:33.142Z,100202.45
2023-05-08T18:28:00.900Z,100203.02
2023-05-08T18:30:28.910Z,100208.59
2023-05-08T18:32:56.591Z,100208.33
2023-05-08T18:35:24.031Z,100210.91
2023-05-08T18:37:51.464Z,100215.17
2023-05-08T18:40:19.153Z,100215.36
2023-05-08T18:42:46.881Z,100211.50
2023-05-08T18:45:14.579Z,100211.41
2023-05-08T18:47:42.362Z,100211.66
2023-05-08T18:50:10.707Z,100210.21
2023-05-08T18:52:38.308Z,100210.07
2023-05-08T18:55:06.446Z,100214.61
2023-05-08T18:57:35.197Z,100213.83
2023-05-08T19:00:02.915Z,100212.62
2023-05-08T19:02:30.800Z,100217.57
2023-05-08T19:04:59.241Z,100218.09
2023-05-08T19:07:26.931Z,100221.33
2023-05-08T19:09:54.977Z,100220.54
2023-05-08T19:12:22.448Z,100222.70
2023-05-08T19:14:51.321Z,100222.36
2023-05-08T19:17:18.693Z,100224.38
2023-05-08T19:19:46.539Z,100222.50
2023-05-08T19:22:14.014Z,100220.70
2023-05-08T19:24:41.350Z,100219.77
2023-05-08T19:27:09.012Z,100220.14
2023-05-08T19:29:36.476Z,100222.85
2023-05-08T19:32:04.404Z,100226.13
2023-05-08T19:34:32.650Z,100223.11
2023-05-08T19:37:00.166Z,100224.11
2023-05-08T19:39:27.635Z,100223.65
2023-05-08T19:41:55.216Z,100227.23
2023-05-08T19:44:22.437Z,100223.61
2023-05-08T19:46:51.138Z,100225.04
2023-05-08T19:49:18.578Z,100227.05
2023-05-08T19:51:46.137Z,100222.91
2023-05-08T19:54:13.706Z,100227.26
2023-05-08T19:56:41.167Z,100226.11
2023-05-08T19:59:08.840Z,100230.30
2023-05-08T20:01:36.525Z,100229.03
2023-05-08T20:04:04.497Z,100231.30
2023-05-08T20:06:32.338Z,100230.11
2023-05-08T20:08:59.972Z,100226.44
2023-05-08T20:11:27.537Z,100228.98
2023-05-08T20:13:55.400Z,100225.95
2023-05-08T20:16:23.228Z,100230.14
2023-05-08T20:18:50.940Z,100228.54
2023-05-08T20:21:18.591Z,100231.58
2023-05-08T20:23:46.346Z,100229.34
2023-05-08T20:26:13.707Z,100232.09
2023-05-08T20:28:41.071Z,100232.05
2023-05-08T20:31:08.837Z,100231.61
2023-05-08T20:33:36.501Z,100224.69
2023-05-08T20:36:04.243Z,100221.02
2023-05-08T20:38:32.439Z,100219.27
2023-05-08T20:41:01.170Z,100214.04
2023-05-08T20:43:28.975Z,100217.14
2023-05-08T20:45:56.596Z,100212.27
2023-05-08T20:48:24.006Z,100216.70
2023-05-08T20:50:51.550Z,100217.10
2023-05-08T20:53:19.130Z,100217.98
2023-05-08T20:55:46.754Z,100217.52
2023-05-08T20:58:14.372Z,100216.00
2023-05-08T21:00:41.984Z,100217.29
2023-05-08T21:03:09.374Z,100219.02
2023-05-08T21:05:36.898Z,100216.02
2023-05-08T21:08:06.520Z,100214.68
2023-05-08T21:10:34.476Z,100214.59
2023-05-08T21:13:01.933Z,100214.98
2023-05-08T21:15:29.698Z,100212.34
2023-05-08T21:18:00.279Z,100210.13
2023-05-08T21:20:28.109Z,100208.79
2023-05-08T21:22:55.768Z,100210.02
2023-05-08T21:25:23.319Z,100208.52
2023-05-08T21:27:50.968Z,100209.11
2023-05-08T21:30:19.254Z,100209.44
2023-05-08T21:32:46.760Z,100209.51
2023-05-08T21:35:14.604Z,100208.76
2023-05-08T21:37:42.446Z,100203.19
2023-05-08T21:40:10.431Z,100204.98
2023-05-08T21:42:39.025Z,100203.65
2023-05-08T21:45:07.537Z,100204.42
2023-05-08T21:47:34.960Z,100204.67
2023-05-08T21:50:02.602Z,100204.52
2023-05-08T21:52:30.257Z,100203.77
2023-05-08T21:54:57.611Z,100202.34
2023-05-08T21:57:25.274Z,100201.84
2023-05-08T21:59:53.034Z,100198.87
2023-05-08T22:02:20.664Z,100194.80
2023-05-08T22:04:48.266Z,100192.85
2023-05-08T22:07:16.326Z,100189.70
2023-05-08T22:09:43.792Z,100189.01
2023-05-08T22:12:11.546Z,100186.82
2023-05-08T22:14:39.108Z,100183.69
2023-05-08T22:17:06.582Z,100185.23
2023-05-08T22:19:34.017Z,100183.09
2023-05-08T22:22:01.267Z,100183.89
2023-05-08T22:24:28.731Z,100186.25
2023-05-08T22:26:55.984Z,100185.04
2023-05-08T22:29:23.640Z,100186.73
2023-05-08T22:31:51.261Z,100184.64
2023-05-08T22:34:18.861Z,100181.56
2023-05-08T22:36:46.522Z,100173.55
2023-05-08T22:39:14.076Z,100175.99
2023-05-08T22:41:41.764Z,100171.09
2023-05-08T22:44:09.317Z,100171.10
2023-05-08T22:46:37.360Z,100171.14
2023-05-08T22:49:04.926Z,100164.05
2023-05-08T22:51:33.104Z,100161.32
2023-05-08T22:54:00.574Z,100158.77
2023-05-08T22:56:28.117Z,100153.28
2023-05-08T22:58:55.983Z,100151.70
2023-05-08T23:01:23.662Z,100152.83
2023-05-08T23:03:52.021Z,100152.19
2023-05-08T23:06:19.483Z,100146.98
2023-05-08T23:08:47.139Z,100150.65
2023-05-08T23:11:14.497Z,100148.73
2023-05-08T23:13:42.360Z,100144.41
2023-05-08T23:16:09.823Z,100142.05
2023-05-08T23:18:37.286Z,100141.44
2023-05-08T23:21:05.850Z,100140.14
2023-05-08T23:23:33.418Z,100142.36
2023-05-08T23:26:01.488Z,100137.11
2023-05-08T23:28:28.846Z,100141.00
2023-05-08T23:30:56.164Z,100139.23
2023-05-08T23:33:23.566Z,100137.36
2023-05-08T23:35:52.236Z,100132.23
2023-05-08T23:38:19.383Z,100135.86
2023-05-08T23:40:46.751Z,100135.70
2023-05-08T23:43:14.194Z,100134.99
2023-05-08T23:45:41.960Z,100133.48
2023-05-08T23:48:09.581Z,100133.33
2023-05-08T23:50:37.287Z,100134.01
2023-05-08T23:53:04.857Z,100135.20
2023-05-08T23:55:32.198Z,100135.80
2023-05-08T23:57:59.463Z,100137.40
